Time;durP1;ratioP1;P1;durP2;ratioP2;P2;SDS_P1;SDS_P2;PMS_P1;PMS_P2;Temp;Humidity;BMP_temperature;BMP_pressure;BME280_temperature;BME280_humidity;BME280_pressure;Samples;Min_cycle;Max_cycle;Signal;HPM_P1;HPM_P2
2021/01/20 00:00:28;;;;;;;22.77;13.40;;;;;;;1.24;89.52;99672.03;5192667;56;21292;-86
2021/01/20 00:05:35;;;;;;;24.13;14.30;;;;;;;1.23;89.71;99675.09;5165132;57;21248;-86
2021/01/20 00:10:41;;;;;;;25.33;12.63;;;;;;;1.26;89.51;99672.80;5215716;56;21285;-86
2021/01/20 00:15:46;;;;;;;15.57;9.33;;;;;;;1.29;89.60;99675.24;5214651;56;21350;-86
2021/01/20 00:20:52;;;;;;;23.70;13.67;;;;;;;1.30;89.58;99675.16;5210288;56;21576;-86
2021/01/20 00:25:57;;;;;;;25.50;13.57;;;;;;;1.30;89.60;99671.72;5223035;56;21268;-86
2021/01/20 00:31:03;;;;;;;18.27;11.07;;;;;;;1.31;89.45;99670.34;5199123;56;21274;-85
2021/01/20 00:36:09;;;;;;;19.77;11.60;;;;;;;1.35;89.59;99666.66;5205588;56;21243;-86
2021/01/20 00:41:15;;;;;;;20.03;11.53;;;;;;;1.35;89.62;99668.42;5211106;56;21278;-85
2021/01/20 00:46:20;;;;;;;20.53;10.80;;;;;;;1.34;89.81;99663.67;5209880;56;21326;-85
2021/01/20 00:51:26;;;;;;;15.83;8.47;;;;;;;1.36;89.75;99662.29;5220726;56;21255;-86
2021/01/20 00:56:31;;;;;;;18.23;10.00;;;;;;;1.38;90.11;99665.16;5177572;56;21143;-86
2021/01/20 01:01:37;;;;;;;17.47;10.37;;;;;;;1.41;89.70;99655.05;5125327;57;21160;-86
2021/01/20 01:06:45;;;;;;;18.57;11.17;;;;;;;1.44;89.87;99653.58;5129464;57;21128;-85
2021/01/20 01:11:51;;;;;;;16.53;8.23;;;;;;;1.45;89.87;99646.15;5137789;57;21188;-86
2021/01/20 01:16:57;;;;;;;9.47;4.17;;;;;;;1.50;89.84;99642.00;5020657;59;21539;-85
2021/01/20 01:22:04;;;;;;;17.17;8.60;;;;;;;1.51;90.19;99635.86;5012605;58;21154;-85
2021/01/20 01:27:11;;;;;;;13.03;8.23;;;;;;;1.56;89.98;99635.97;5015728;59;21158;-86
2021/01/20 01:32:17;;;;;;;13.40;7.10;;;;;;;1.59;89.99;99629.30;5038661;58;21162;-86
2021/01/20 01:37:23;;;;;;;10.83;7.10;;;;;;;1.64;89.81;99630.36;5130001;57;21482;-86
2021/01/20 01:42:46;;;;;;;21.80;14.47;;;;;;;1.62;89.90;99628.30;5147321;57;21166;-87
2021/01/20 01:47:53;;;;;;;11.80;6.20;;;;;;;1.62;89.79;99623.92;5134654;57;21076;-86
2021/01/20 01:52:59;;;;;;;8.80;5.60;;;;;;;1.64;90.15;99618.63;5001340;59;21127;-86
2021/01/20 01:58:23;;;;;;;11.85;7.25;;;;;;;1.66;90.04;99620.69;5144507;57;21716;-86
2021/01/20 02:03:30;;;;;;;7.33;5.47;;;;;;;1.70;90.07;99622.17;5129587;57;21262;-86
2021/01/20 02:08:38;;;;;;;5.30;4.30;;;;;;;1.71;90.55;99624.70;5124111;57;21078;-86
2021/01/20 02:14:09;;;;;;;12.87;6.97;;;;;;;1.75;90.82;99624.92;5139159;57;21604;-85
2021/01/20 02:19:22;;;;;;;9.50;5.75;;;;;;;1.80;90.63;99629.89;4947577;59;21148;-86
2021/01/20 02:24:33;;;;;;;9.00;6.57;;;;;;;1.86;91.13;99633.44;5032611;58;21080;-86
2021/01/20 02:30:16;;;;;;;9.30;5.47;;;;;;;1.92;90.97;99627.05;5037134;58;21146;-86
2021/01/20 02:35:30;;;;;;;9.73;7.10;;;;;;;1.96;91.01;99630.70;4899052;60;21205;-86
2021/01/20 02:40:36;;;;;;;6.47;5.17;;;;;;;2.00;91.03;99630.05;4902378;60;21174;-87
2021/01/20 02:45:46;;;;;;;5.63;4.37;;;;;;;2.04;91.09;99640.23;4900220;60;21079;-86
2021/01/20 02:50:52;;;;;;;6.30;5.10;;;;;;;2.07;91.28;99632.70;4901659;60;21071;-86
2021/01/20 02:56:19;;;;;;;8.20;5.63;;;;;;;2.08;91.45;99639.13;4973543;58;21174;-86
2021/01/20 03:01:34;;;;;;;6.03;4.90;;;;;;;2.09;91.42;99633.45;4764484;62;21205;-85
2021/01/20 03:06:40;;;;;;;7.90;5.10;;;;;;;2.07;91.85;99639.22;4854834;60;21183;-86
2021/01/20 03:11:52;;;;;;;10.27;5.87;;;;;;;2.07;91.87;99633.54;4854433;60;21195;-86
2021/01/20 03:16:57;;;;;;;15.27;8.67;;;;;;;2.08;92.11;99634.38;4854552;60;21215;-85
2021/01/20 03:22:02;;;;;;;11.67;7.63;;;;;;;2.07;91.51;99640.06;4854932;59;21239;-86
2021/01/20 03:27:07;;;;;;;11.70;9.10;;;;;;;2.11;91.53;99641.58;5021845;59;21239;-85
2021/01/20 03:32:11;;;;;;;7.10;5.13;;;;;;;2.15;91.57;99636.16;5023695;58;21228;-86
2021/01/20 03:37:16;;;;;;;11.27;8.00;;;;;;;2.15;92.28;99631.78;5023279;58;21204;-86
2021/01/20 03:42:21;;;;;;;14.10;9.50;;;;;;;2.18;91.68;99634.69;5021756;58;21505;-85
2021/01/20 03:47:26;;;;;;;10.70;6.20;;;;;;;2.21;91.97;99631.91;5021835;58;21220;-86
2021/01/20 03:52:30;;;;;;;11.23;7.27;;;;;;;2.26;92.21;99635.09;5022840;58;21216;-85
2021/01/20 03:57:35;;;;;;;15.53;9.67;;;;;;;2.27;92.37;99637.63;5021150;58;21228;-85
2021/01/20 04:02:40;;;;;;;13.30;7.90;;;;;;;2.32;92.17;99629.05;5012657;58;21678;-85
2021/01/20 04:07:50;;;;;;;7.90;6.60;;;;;;;2.34;92.78;99631.57;5002981;59;21110;-86
2021/01/20 04:12:55;;;;;;;13.90;10.63;;;;;;;2.39;92.39;99629.55;5012643;59;21522;-85
2021/01/20 04:18:01;;;;;;;20.47;12.80;;;;;;;2.40;92.16;99621.63;5012530;59;21144;-85
2021/01/20 04:23:06;;;;;;;15.93;11.20;;;;;;;2.47;92.18;99622.94;5012617;59;21194;-85
2021/01/20 04:28:12;;;;;;;14.83;8.27;;;;;;;2.51;92.10;99635.81;5010442;59;21177;-85
2021/01/20 04:33:18;;;;;;;12.00;8.03;;;;;;;2.53;91.95;99632.19;5012408;59;21157;-85
2021/01/20 04:38:24;;;;;;;12.17;8.07;;;;;;;2.58;92.22;99627.55;4980119;59;21146;-85
2021/01/20 04:43:29;;;;;;;11.17;8.00;;;;;;;2.59;92.51;99637.52;4981823;59;21145;-86
2021/01/20 04:48:37;;;;;;;10.83;6.80;;;;;;;2.64;92.43;99634.16;4982124;59;21141;-85
2021/01/20 04:53:44;;;;;;;13.27;7.77;;;;;;;2.66;92.83;99630.53;4981923;59;21094;-86
2021/01/20 04:58:55;;;;;;;10.63;6.87;;;;;;;2.69;92.39;99636.88;4956773;59;21196;-86
2021/01/20 05:04:03;;;;;;;11.43;8.63;;;;;;;2.74;92.54;99633.54;4977643;59;21227;-86
2021/01/20 05:09:08;;;;;;;8.13;6.07;;;;;;;2.76;92.24;99630.34;4968299;59;21165;-86
2021/01/20 05:14:17;;;;;;;9.47;7.70;;;;;;;2.77;92.46;99628.11;4981411;59;21153;-86
2021/01/20 05:19:40;;;;;;;5.60;4.97;;;;;;;2.79;92.28;99634.08;4973188;59;21168;-85
2021/01/20 05:24:46;;;;;;;;;;;;;;;2.78;92.12;99631.09;4966560;59;21176;-85
2021/01/20 05:30:06;;;;;;;9.67;6.47;;;;;;;2.80;92.07;99647.98;4980194;59;20167;-85
2021/01/20 05:35:12;;;;;;;6.47;5.80;;;;;;;2.80;92.09;99643.59;4961695;59;21498;-85
2021/01/20 05:40:20;;;;;;;13.53;10.67;;;;;;;2.81;91.95;99640.06;4972300;59;21152;-85
2021/01/20 05:45:26;;;;;;;167.53;100.27;;;;;;;2.82;91.82;99643.51;4965623;59;21466;-85
2021/01/20 05:50:34;;;;;;;174.07;122.33;;;;;;;2.81;91.91;99641.83;4886052;60;21201;-85
2021/01/20 05:55:40;;;;;;;53.20;41.83;;;;;;;2.80;91.82;99649.28;4877391;60;21158;-85
2021/01/20 06:00:46;;;;;;;12.03;8.80;;;;;;;2.80;91.75;99655.81;4974308;59;21264;-85
2021/01/20 06:05:52;;;;;;;16.87;12.53;;;;;;;2.79;91.66;99664.11;4965762;59;21253;-86
2021/01/20 06:10:57;;;;;;;10.07;8.83;;;;;;;2.79;91.56;99669.33;4981380;59;21180;-85
2021/01/20 06:16:24;;;;;;;10.13;8.30;;;;;;;2.80;91.52;99664.95;4969718;59;21165;-85
2021/01/20 06:21:31;;;;;;;11.80;9.73;;;;;;;2.78;91.55;99672.87;4961632;59;21160;-85
2021/01/20 06:26:44;;;;;;;6.60;5.60;;;;;;;2.77;91.50;99673.80;4970201;59;21499;-85
2021/01/20 06:31:52;;;;;;;9.60;7.12;;;;;;;2.77;91.53;99680.33;4964106;59;21149;-84
2021/01/20 06:36:58;;;;;;;8.93;6.40;;;;;;;2.80;91.44;99688.45;4840718;61;21187;-84
2021/01/20 06:42:04;;;;;;;8.60;7.00;;;;;;;2.80;91.33;99697.59;4973510;59;21460;-84
2021/01/20 06:47:09;;;;;;;11.50;7.90;;;;;;;2.80;91.26;99695.82;4932564;59;21113;-85
2021/01/20 06:52:16;;;;;;;11.00;7.57;;;;;;;2.84;91.16;99691.27;4980767;59;21188;-84
2021/01/20 06:57:38;;;;;;;10.40;8.07;;;;;;;2.85;91.07;99686.88;4965420;59;21236;-84
2021/01/20 07:03:02;;;;;;;11.10;7.53;;;;;;;2.88;90.87;99685.41;4976591;59;21118;-84
2021/01/20 07:08:10;;;;;;;;;;;;;;;2.87;90.81;99687.17;4984966;59;21861;-85
2021/01/20 07:13:18;;;;;;;13.73;8.43;;;;;;;2.85;90.99;99682.50;4980325;59;20138;-85
2021/01/20 07:18:26;;;;;;;7.73;5.70;;;;;;;2.88;90.93;99689.32;4978764;59;21189;-85
2021/01/20 07:23:32;;;;;;;10.03;6.77;;;;;;;2.87;90.92;99685.03;4977318;59;21216;-85
2021/01/20 07:28:39;;;;;;;11.20;6.93;;;;;;;2.85;90.85;99683.81;4981103;59;21137;-85
2021/01/20 07:33:54;;;;;;;8.30;5.93;;;;;;;2.85;90.92;99702.09;4981194;59;21205;-85
2021/01/20 07:39:00;;;;;;;11.20;7.87;;;;;;;2.86;90.90;99693.33;4978610;59;21185;-85
2021/01/20 07:44:08;;;;;;;11.13;8.23;;;;;;;2.86;90.84;99693.33;4981286;59;21169;-85
2021/01/20 07:49:15;;;;;;;20.97;11.63;;;;;;;2.89;90.82;99697.53;4981589;59;21264;-85
2021/01/20 07:54:21;;;;;;;9.70;6.13;;;;;;;2.91;90.68;99687.34;4979733;59;21228;-85
2021/01/20 07:59:27;;;;;;;9.57;6.87;;;;;;;2.93;90.58;99690.70;4981278;59;21401;-85
2021/01/20 08:04:32;;;;;;;14.37;7.37;;;;;;;2.93;90.61;99693.78;4978989;59;21692;-85
2021/01/20 08:09:45;;;;;;;9.27;6.37;;;;;;;2.92;90.46;99701.24;4980868;59;21177;-85
2021/01/20 08:14:52;;;;;;;10.47;7.77;;;;;;;2.93;90.44;99706.84;4981037;59;21129;-85
2021/01/20 08:19:58;;;;;;;9.57;6.37;;;;;;;2.95;90.36;99709.74;4980758;59;21185;-85
2021/01/20 08:25:05;;;;;;;7.03;4.70;;;;;;;2.96;90.30;99704.90;4981039;59;21146;-85
2021/01/20 08:30:17;;;;;;;25.80;11.03;;;;;;;2.97;90.20;99704.44;4946053;59;21416;-85
2021/01/20 08:35:28;;;;;;;14.70;7.33;;;;;;;3.01;90.21;99705.94;4980363;59;21530;-85
2021/01/20 08:40:34;;;;;;;12.97;6.67;;;;;;;3.04;90.05;99706.60;4981415;59;21098;-85
2021/01/20 08:45:39;;;;;;;10.10;6.37;;;;;;;3.08;90.00;99700.70;4981350;59;21165;-85
2021/01/20 08:50:47;;;;;;;19.30;6.47;;;;;;;3.10;89.97;99701.45;4981552;59;21161;-85
2021/01/20 08:55:56;;;;;;;14.67;6.30;;;;;;;3.16;90.00;99701.10;4980010;59;21182;-85
2021/01/20 09:01:14;;;;;;;32.20;10.13;;;;;;;3.18;89.93;99698.78;4985978;59;21441;-85
2021/01/20 09:06:17;;;;;;;32.27;10.13;;;;;;;3.23;89.92;99703.70;5003263;59;21431;-85
2021/01/20 09:11:24;;;;;;;33.77;11.43;;;;;;;3.28;89.76;99693.83;5010584;59;21105;-86
2021/01/20 09:16:32;;;;;;;13.10;6.77;;;;;;;3.32;89.67;99692.71;5010152;59;21168;-86
2021/01/20 09:21:37;;;;;;;10.10;4.97;;;;;;;3.33;89.52;99687.02;5009873;59;21392;-85
2021/01/20 09:26:43;;;;;;;11.47;5.53;;;;;;;3.35;89.37;99683.38;5011321;59;21513;-86
2021/01/20 09:31:49;;;;;;;16.40;6.73;;;;;;;3.37;89.17;99681.95;5010369;59;21176;-85
2021/01/20 09:36:54;;;;;;;10.90;7.17;;;;;;;3.44;89.29;99684.58;5010749;59;21201;-85
2021/01/20 09:42:00;;;;;;;13.97;6.53;;;;;;;3.49;89.25;99676.00;5010687;59;21443;-86
2021/01/20 09:47:05;;;;;;;8.47;4.97;;;;;;;3.57;89.07;99680.27;5010840;59;21223;-87
2021/01/20 09:52:15;;;;;;;11.90;6.30;;;;;;;3.64;88.52;99669.81;5007886;59;21529;-84
2021/01/20 09:57:19;;;;;;;9.93;6.83;;;;;;;3.71;88.62;99666.33;5011006;59;21212;-85
2021/01/20 10:02:24;;;;;;;16.67;8.83;;;;;;;3.78;88.64;99659.79;5008656;58;21121;-85
2021/01/20 10:07:30;;;;;;;13.30;7.30;;;;;;;3.82;88.45;99662.56;5010301;58;21236;-85
2021/01/20 10:12:36;;;;;;;24.77;10.50;;;;;;;3.86;88.19;99667.97;4976622;59;21208;-84
2021/01/20 10:17:41;;;;;;;26.67;11.90;;;;;;;3.89;87.98;99667.78;5006176;59;21125;-84
2021/01/20 10:22:47;;;;;;;17.40;9.07;;;;;;;3.94;88.08;99657.04;5009608;59;21522;-84
2021/01/20 10:27:52;;;;;;;33.27;10.10;;;;;;;3.96;87.83;99657.78;5007804;58;21130;-83
2021/01/20 10:33:00;;;;;;;12.53;7.20;;;;;;;3.99;87.64;99654.95;5010167;58;21228;-84
2021/01/20 10:38:05;;;;;;;24.17;8.43;;;;;;;4.01;87.21;99655.22;5011046;58;21498;-84
2021/01/20 10:43:11;;;;;;;15.40;7.73;;;;;;;4.06;86.91;99650.55;5011198;58;21082;-84
2021/01/20 10:48:16;;;;;;;31.27;12.53;;;;;;;4.13;87.11;99653.58;5011425;58;21173;-84
2021/01/20 10:53:22;;;;;;;14.40;7.00;;;;;;;4.24;86.47;99649.82;5015764;57;21161;-85
2021/01/20 10:58:27;;;;;;;15.97;7.73;;;;;;;4.33;86.16;99644.44;5008960;58;21474;-84
2021/01/20 11:03:33;;;;;;;30.83;9.23;;;;;;;4.44;85.63;99639.33;4992460;58;21219;-84
2021/01/20 11:08:39;;;;;;;20.10;9.03;;;;;;;4.54;85.52;99639.10;4955975;59;21224;-84
2021/01/20 11:13:45;;;;;;;20.77;9.13;;;;;;;4.58;84.67;99638.77;4962255;59;21102;-85
2021/01/20 11:18:51;;;;;;;14.53;7.47;;;;;;;4.56;83.68;99639.84;4959911;59;21169;-85
2021/01/20 11:23:57;;;;;;;23.17;7.10;;;;;;;4.53;83.83;99625.17;4959951;59;21749;-85
2021/01/20 11:29:03;;;;;;;21.40;8.30;;;;;;;4.56;83.42;99630.67;4961385;59;21177;-85
2021/01/20 11:34:08;;;;;;;22.07;7.67;;;;;;;4.57;83.44;99632.36;4971968;59;21423;-85
2021/01/20 11:39:14;;;;;;;25.07;12.20;;;;;;;4.59;83.35;99631.28;4970858;59;21216;-85
2021/01/20 11:44:19;;;;;;;19.30;9.03;;;;;;;4.60;83.82;99620.34;4974028;59;21180;-85
2021/01/20 11:49:25;;;;;;;22.57;8.97;;;;;;;4.64;83.05;99618.36;4966442;59;21157;-85
2021/01/20 11:54:32;;;;;;;27.23;8.87;;;;;;;4.67;83.17;99608.52;4963227;59;21172;-85
2021/01/20 11:59:39;;;;;;;54.83;19.77;;;;;;;4.74;82.19;99603.69;4956006;59;21171;-85
2021/01/20 12:04:46;;;;;;;20.97;8.57;;;;;;;4.78;83.35;99597.31;4992024;58;21324;-85
2021/01/20 12:09:52;;;;;;;33.20;12.77;;;;;;;4.77;82.39;99600.40;4995930;59;21473;-85
2021/01/20 12:14:58;;;;;;;80.07;25.93;;;;;;;4.75;82.45;99596.20;4998555;59;21180;-86
2021/01/20 12:20:07;;;;;;;34.63;14.37;;;;;;;4.79;82.48;99580.65;4995836;59;21161;-86
2021/01/20 12:25:13;;;;;;;28.03;10.27;;;;;;;4.80;82.83;99577.09;4997359;59;21149;-85
2021/01/20 12:30:19;;;;;;;25.40;10.20;;;;;;;4.79;81.37;99574.94;4999467;59;21169;-86
2021/01/20 12:35:25;;;;;;;44.80;19.77;;;;;;;4.85;81.80;99574.53;4999819;59;21186;-86
2021/01/20 12:40:30;;;;;;;30.63;13.57;;;;;;;4.96;82.57;99568.54;4999583;59;21439;-86
2021/01/20 12:45:36;;;;;;;14.73;7.97;;;;;;;4.94;81.77;99557.32;4999492;59;21494;-85
2021/01/20 12:50:41;;;;;;;17.17;8.17;;;;;;;4.95;80.74;99561.63;4999070;59;21188;-85
2021/01/20 12:55:47;;;;;;;14.27;6.60;;;;;;;4.92;79.86;99550.03;4996533;59;21170;-85
2021/01/20 13:00:54;;;;;;;17.90;7.67;;;;;;;4.93;80.46;99547.78;4995711;59;21228;-85
2021/01/20 13:06:14;;;;;;;13.43;5.73;;;;;;;4.97;81.38;99541.39;4997025;59;21181;-85
2021/01/20 13:11:21;;;;;;;15.77;6.37;;;;;;;4.98;81.26;99547.00;5008332;59;21210;-86
2021/01/20 13:16:27;;;;;;;45.97;12.47;;;;;;;5.03;80.15;99548.00;5010465;58;21492;-86
2021/01/20 13:21:34;;;;;;;17.27;6.57;;;;;;;5.07;81.38;99549.44;5009203;58;21216;-86
2021/01/20 13:26:39;;;;;;;28.70;11.03;;;;;;;5.13;80.92;99540.68;5010849;58;21194;-86
2021/01/20 13:31:48;;;;;;;43.97;18.23;;;;;;;5.22;80.44;99528.69;5009076;58;21146;-86
2021/01/20 13:36:52;;;;;;;21.70;8.53;;;;;;;5.30;80.54;99521.13;5008911;59;21197;-86
2021/01/20 13:41:59;;;;;;;30.20;12.70;;;;;;;5.56;80.82;99516.61;5010440;59;21245;-87
2021/01/20 13:47:06;;;;;;;59.70;19.30;;;;;;;5.75;80.03;99520.05;4919606;60;21692;-87
2021/01/20 13:52:13;;;;;;;21.47;9.13;;;;;;;5.81;79.99;99537.94;4921683;59;21113;-87
2021/01/20 13:57:19;;;;;;;15.87;7.33;;;;;;;5.77;79.80;99538.67;4978820;59;21178;-86
2021/01/20 14:02:25;;;;;;;41.73;17.87;;;;;;;5.76;78.15;99540.92;4970574;59;21130;-86
2021/01/20 14:07:31;;;;;;;64.40;23.03;;;;;;;6.04;79.81;99535.81;4952090;59;21154;-86
2021/01/20 14:12:36;;;;;;;96.03;36.73;;;;;;;6.24;78.32;99533.02;5011459;59;21118;-86
2021/01/20 14:17:42;;;;;;;14.30;6.90;;;;;;;6.13;77.24;99544.78;5011308;59;21200;-85
2021/01/20 14:22:47;;;;;;;16.13;9.17;;;;;;;5.95;77.30;99550.47;5006009;59;21172;-86
2021/01/20 14:27:53;;;;;;;31.43;14.10;;;;;;;5.81;78.05;99544.03;5010439;59;21163;-86
2021/01/20 14:32:59;;;;;;;40.00;14.30;;;;;;;5.73;78.18;99541.14;5010680;59;21247;-86
2021/01/20 14:38:04;;;;;;;27.67;11.27;;;;;;;5.60;76.97;99532.50;5009384;59;21184;-86
2021/01/20 14:43:10;;;;;;;46.77;16.43;;;;;;;5.57;78.11;99533.55;5008693;59;21164;-86
2021/01/20 14:48:16;;;;;;;47.97;14.83;;;;;;;5.50;78.24;99526.26;5006291;59;21483;-86
2021/01/20 14:53:31;;;;;;;28.10;11.63;;;;;;;5.46;78.61;99527.42;4999513;59;21172;-91
2021/01/20 14:58:50;;;;;;;18.90;9.03;;;;;;;5.44;78.57;99526.69;5002128;59;21180;-92
2021/01/20 15:04:14;;;;;;;;;;;;;;;;;;;;;
2021/01/20 15:09:20;;;;;;;53.07;17.07;;;;;;;5.32;78.41;99534.97;4988857;59;21205;-89
2021/01/20 15:14:26;;;;;;;25.07;8.07;;;;;;;5.26;78.73;99532.78;4978725;59;21169;-87
2021/01/20 15:19:32;;;;;;;60.60;22.23;;;;;;;5.23;78.26;99531.67;4979584;59;21165;-88
2021/01/20 15:24:42;;;;;;;27.20;12.07;;;;;;;5.22;79.04;99519.52;4982607;59;21315;-89
2021/01/20 15:29:53;;;;;;;47.47;14.27;;;;;;;5.15;79.10;99519.13;4969861;59;21236;-88
2021/01/20 15:34:59;;;;;;;105.47;34.97;;;;;;;5.16;78.44;99525.22;4979063;59;21232;-89
2021/01/20 15:40:06;;;;;;;43.97;16.87;;;;;;;5.12;78.98;99529.83;4946485;59;21228;-89
2021/01/20 15:45:13;;;;;;;101.63;44.07;;;;;;;5.11;78.85;99528.63;4979704;59;21499;-89
2021/01/20 15:50:18;;;;;;;80.90;32.07;;;;;;;5.04;78.62;99526.89;4980040;59;21224;-89
2021/01/20 15:55:25;;;;;;;90.80;39.93;;;;;;;5.03;78.30;99524.41;4981488;59;21232;-89
2021/01/20 16:00:32;;;;;;;64.83;28.97;;;;;;;5.01;78.56;99528.45;4975460;59;21477;-89
2021/01/20 16:05:40;;;;;;;141.37;45.60;;;;;;;4.99;78.58;99530.34;4981588;59;21273;-89
2021/01/20 16:10:45;;;;;;;59.33;19.60;;;;;;;5.01;78.22;99535.00;5004672;59;21232;-88
2021/01/20 16:15:51;;;;;;;60.77;19.73;;;;;;;4.92;77.69;99539.08;5010112;59;21163;-89
2021/01/20 16:20:56;;;;;;;46.93;14.30;;;;;;;4.99;78.13;99545.22;5011443;59;21164;-89
2021/01/20 16:26:02;;;;;;;63.07;21.23;;;;;;;4.99;77.34;99536.89;5011832;59;21287;-89
2021/01/20 16:31:07;;;;;;;62.63;21.50;;;;;;;5.01;78.05;99543.33;5011364;59;21509;-89
2021/01/20 16:36:14;;;;;;;77.60;22.17;;;;;;;4.98;76.49;99548.31;5008728;59;21161;-88
2021/01/20 16:41:19;;;;;;;211.63;66.53;;;;;;;4.97;77.29;99561.05;5011904;58;21101;-92
2021/01/20 16:46:25;;;;;;;113.60;28.30;;;;;;;4.91;77.77;99555.75;5008625;59;21160;-89
2021/01/20 16:51:31;;;;;;;146.37;37.10;;;;;;;4.93;77.59;99565.66;5012016;59;21243;-89
2021/01/20 16:56:37;;;;;;;63.63;21.67;;;;;;;4.89;77.30;99556.32;5011295;59;21550;-88
2021/01/20 17:01:45;;;;;;;94.33;26.10;;;;;;;4.87;77.34;99554.78;5011786;59;21145;-89
2021/01/20 17:06:50;;;;;;;144.77;55.07;;;;;;;4.83;77.37;99554.62;5010216;59;21168;-89
2021/01/20 17:11:57;;;;;;;153.27;47.53;;;;;;;4.84;77.37;99549.27;4982263;59;21539;-88
2021/01/20 17:17:03;;;;;;;128.77;45.50;;;;;;;4.85;77.11;99552.73;4960131;59;21209;-89
2021/01/20 17:22:11;;;;;;;124.33;35.90;;;;;;;4.83;76.90;99550.69;4950724;59;21428;-88
2021/01/20 17:27:16;;;;;;;131.97;36.27;;;;;;;4.83;76.69;99548.91;4936100;59;21415;-89
2021/01/20 17:32:22;;;;;;;69.30;24.10;;;;;;;4.82;77.05;99546.39;4803720;60;21195;-89
2021/01/20 17:42:48;;;;;;;77.25;23.30;;;;;;;4.78;76.64;99555.39;4729037;62;21288;-89
2021/01/20 17:48:06;;;;;;;68.40;20.03;;;;;;;4.79;76.89;99550.52;4683716;62;21211;-88
2021/01/20 17:53:15;;;;;;;72.00;24.30;;;;;;;4.79;76.21;99551.84;4753079;62;21221;-88
2021/01/20 17:58:20;;;;;;;49.80;18.80;;;;;;;4.81;76.39;99558.65;4677883;63;21162;-88
2021/01/20 18:03:26;;;;;;;39.57;15.43;;;;;;;4.83;74.87;99555.92;4717291;62;21233;-89
2021/01/20 18:08:32;;;;;;;38.83;15.03;;;;;;;4.86;74.97;99549.17;4691506;62;21194;-89
2021/01/20 18:13:38;;;;;;;188.53;75.73;;;;;;;4.92;75.10;99543.48;4782723;61;21196;-89
2021/01/20 18:18:46;;;;;;;98.27;34.83;;;;;;;4.90;74.62;99551.45;5017061;58;21154;-89
2021/01/20 18:23:52;;;;;;;47.23;16.70;;;;;;;4.94;74.80;99540.29;5015306;58;21114;-89
2021/01/20 18:28:58;;;;;;;68.57;24.90;;;;;;;4.91;73.65;99544.43;5017564;58;21118;-88
2021/01/20 18:34:04;;;;;;;119.67;46.20;;;;;;;4.88;73.12;99544.67;5017095;58;21146;-89
2021/01/20 18:39:14;;;;;;;105.20;41.07;;;;;;;4.85;73.88;99543.56;4917465;59;21251;-89
2021/01/20 18:44:22;;;;;;;31.10;12.80;;;;;;;4.83;74.67;99542.83;4953960;59;21094;-90
2021/01/20 18:49:28;;;;;;;40.03;16.33;;;;;;;4.81;74.05;99543.41;5017067;58;21161;-88
2021/01/20 18:54:40;;;;;;;34.97;14.77;;;;;;;4.76;74.58;99543.71;5018434;58;21189;-88
2021/01/20 18:59:48;;;;;;;32.53;14.93;;;;;;;4.75;74.60;99542.03;5017657;58;21565;-88
2021/01/20 19:04:52;;;;;;;28.90;12.53;;;;;;;4.70;74.30;99536.77;5017770;58;21561;-90
2021/01/20 19:09:58;;;;;;;43.87;17.33;;;;;;;4.67;74.67;99543.52;5012961;58;21121;-89
2021/01/20 19:15:06;;;;;;;38.60;15.17;;;;;;;4.66;74.79;99543.16;5007593;58;21138;-91
2021/01/20 19:20:13;;;;;;;182.00;73.60;;;;;;;4.60;74.60;99548.33;5009663;58;21153;-89
2021/01/20 19:25:19;;;;;;;86.17;38.43;;;;;;;4.58;74.83;99534.53;5009931;58;21180;-90
2021/01/20 19:30:25;;;;;;;62.87;28.60;;;;;;;4.55;74.47;99529.50;5009571;59;21112;-88
2021/01/20 19:35:31;;;;;;;57.83;23.43;;;;;;;4.52;74.42;99534.94;5006303;59;21166;-88
2021/01/20 19:40:37;;;;;;;51.10;18.57;;;;;;;4.53;74.96;99529.59;5009641;59;21172;-87
2021/01/20 19:45:42;;;;;;;36.07;16.53;;;;;;;4.51;74.87;99528.02;4954787;59;21523;-87
2021/01/20 19:50:48;;;;;;;47.53;19.63;;;;;;;4.53;74.71;99529.59;4917357;59;21161;-87
2021/01/20 19:55:54;;;;;;;28.30;10.97;;;;;;;4.49;74.71;99529.91;4949323;59;21235;-86
2021/01/20 20:01:00;;;;;;;25.43;10.53;;;;;;;4.50;74.26;99540.27;5011607;59;21189;-88
2021/01/20 20:06:05;;;;;;;30.47;12.97;;;;;;;4.50;74.51;99549.44;5012176;59;21161;-87
2021/01/20 20:11:11;;;;;;;26.03;10.77;;;;;;;4.48;74.41;99543.47;5009855;58;21153;-87
2021/01/20 20:16:17;;;;;;;36.63;14.50;;;;;;;4.51;74.19;99547.66;5011555;58;21090;-88
2021/01/20 20:21:23;;;;;;;30.87;13.27;;;;;;;4.50;74.36;99545.98;5011566;58;21122;-88
2021/01/20 20:26:29;;;;;;;41.30;17.53;;;;;;;4.51;74.15;99539.80;5013622;58;21455;-87
2021/01/20 20:31:34;;;;;;;33.57;11.93;;;;;;;4.52;74.49;99539.70;5011318;58;21199;-88
2021/01/20 20:36:40;;;;;;;29.53;11.83;;;;;;;4.51;73.57;99539.80;5015567;58;21153;-88
2021/01/20 20:41:46;;;;;;;22.70;10.50;;;;;;;4.52;73.93;99547.56;5009620;58;21168;-87
2021/01/20 20:46:52;;;;;;;38.27;19.77;;;;;;;4.49;74.09;99542.99;5012142;58;21212;-88
2021/01/20 20:51:57;;;;;;;26.67;12.03;;;;;;;4.45;74.04;99542.36;5009293;58;21173;-87
2021/01/20 20:57:03;;;;;;;30.83;11.33;;;;;;;4.42;73.77;99541.28;5011539;59;21507;-88
2021/01/20 21:02:09;;;;;;;23.30;10.57;;;;;;;4.40;73.78;99538.40;4982178;59;21551;-87
2021/01/20 21:07:15;;;;;;;34.73;12.53;;;;;;;4.38;73.36;99533.27;4981317;59;21153;-86
2021/01/20 21:15:52;;;;;;;22.87;9.00;;;;;;;4.39;73.60;99531.02;4998829;54;361684;-86
2021/01/20 21:20:58;;;;;;;23.60;9.07;;;;;;;4.36;73.25;99527.76;4876317;60;21144;-86
2021/01/20 21:26:04;;;;;;;24.27;10.97;;;;;;;4.35;73.06;99536.08;4986119;58;21235;-86
2021/01/20 21:31:10;;;;;;;20.80;9.53;;;;;;;4.29;72.74;99531.25;4955239;59;21169;-87
2021/01/20 21:36:15;;;;;;;22.20;9.07;;;;;;;4.28;73.40;99532.69;4876001;60;21096;-87
2021/01/20 21:41:21;;;;;;;23.97;10.47;;;;;;;4.23;72.67;99538.22;4946599;59;21173;-87
2021/01/20 21:46:27;;;;;;;22.23;10.70;;;;;;;4.17;73.10;99525.53;4893111;60;21153;-87
2021/01/20 21:51:33;;;;;;;29.97;10.60;;;;;;;4.16;73.10;99528.63;4943732;59;21176;-87
2021/01/20 21:56:38;;;;;;;21.47;8.90;;;;;;;4.12;73.10;99527.64;4947798;59;21130;-87
2021/01/20 22:01:44;;;;;;;16.90;6.97;;;;;;;4.08;72.76;99526.16;4935689;59;21486;-87
2021/01/20 22:06:50;;;;;;;18.30;7.80;;;;;;;4.09;72.99;99517.38;4966014;59;21157;-87
2021/01/20 22:11:55;;;;;;;24.67;9.27;;;;;;;4.07;73.13;99520.56;4934906;59;21184;-87
2021/01/20 22:17:01;;;;;;;26.67;8.57;;;;;;;4.10;72.92;99517.75;4946843;59;21673;-87
2021/01/20 22:22:06;;;;;;;25.30;8.67;;;;;;;4.07;72.80;99517.47;4870965;60;21137;-87
2021/01/20 22:27:11;;;;;;;23.60;9.50;;;;;;;4.04;72.80;99516.83;4853507;60;21122;-87
2021/01/20 22:32:17;;;;;;;24.83;10.63;;;;;;;4.04;72.84;99522.06;4851402;60;21166;-87
2021/01/20 22:37:23;;;;;;;23.97;10.53;;;;;;;4.01;72.99;99525.72;4878962;60;21164;-87
2021/01/20 22:42:30;;;;;;;27.63;10.87;;;;;;;3.95;72.85;99520.08;4858307;60;22248;-87
2021/01/20 22:47:35;;;;;;;27.53;10.93;;;;;;;3.93;72.50;99519.33;4874375;60;21478;-86
2021/01/20 22:52:43;;;;;;;30.93;11.57;;;;;;;3.86;72.93;99514.50;4771517;61;21179;-87
2021/01/20 22:57:49;;;;;;;26.03;11.37;;;;;;;3.80;72.65;99509.69;4873720;60;21157;-87
2021/01/20 23:02:55;;;;;;;24.80;10.23;;;;;;;3.79;73.18;99496.71;4879846;60;21204;-87
2021/01/20 23:08:01;;;;;;;31.13;12.87;;;;;;;3.73;73.18;99498.41;4867602;60;21485;-87
2021/01/20 23:13:07;;;;;;;26.27;11.17;;;;;;;3.67;73.62;99504.87;4861277;60;21241;-87
2021/01/20 23:18:13;;;;;;;32.17;13.70;;;;;;;3.65;73.50;99498.92;4851226;60;21107;-87
2021/01/20 23:23:19;;;;;;;38.07;17.33;;;;;;;3.61;73.64;99490.91;4882590;60;21478;-87
2021/01/20 23:28:24;;;;;;;46.63;18.27;;;;;;;3.57;73.90;99494.66;4780039;61;21163;-87
2021/01/20 23:33:30;;;;;;;49.80;20.63;;;;;;;3.56;73.95;99488.21;4774475;61;21159;-87
2021/01/20 23:38:36;;;;;;;52.13;22.80;;;;;;;3.54;74.00;99481.77;4874750;60;21149;-87
2021/01/20 23:43:42;;;;;;;35.40;14.33;;;;;;;3.51;74.20;99475.47;4872725;60;21118;-87
2021/01/20 23:48:47;;;;;;;25.20;11.50;;;;;;;3.46;74.02;99469.69;4859306;60;21485;-87
2021/01/20 23:53:53;;;;;;;28.00;12.37;;;;;;;3.39;73.88;99464.48;4876540;60;21479;-86
2021/01/20 23:58:58;;;;;;;27.83;11.20;;;;;;;3.33;74.22;99461.81;4878846;60;21999;-87
